sensor_id;sensor_type;location;lat;lon;timestamp;P1;durP1;ratioP1;P2;durP2;ratioP2
32080;SDS011;18593;51.426;7.030;2023-11-18T00:00:03;45.40;;;21.65;;
32080;SDS011;18593;51.426;7.030;2023-11-18T00:02:37;38.97;;;20.25;;
32080;SDS011;18593;51.426;7.030;2023-11-18T00:05:05;37.42;;;21.02;;
32080;SDS011;18593;51.426;7.030;2023-11-18T00:07:33;40.80;;;21.13;;
32080;SDS011;18593;51.426;7.030;2023-11-18T00:10:01;42.70;;;21.75;;
32080;SDS011;18593;51.426;7.030;2023-11-18T00:12:31;42.45;;;21.83;;
32080;SDS011;18593;51.426;7.030;2023-11-18T00:15:00;37.60;;;19.52;;
32080;SDS011;18593;51.426;7.030;2023-11-18T00:17:29;40.42;;;20.65;;
32080;SDS011;18593;51.426;7.030;2023-11-18T00:19:57;38.10;;;20.08;;
32080;SDS011;18593;51.426;7.030;2023-11-18T00:22:24;39.50;;;20.00;;
32080;SDS011;18593;51.426;7.030;2023-11-18T00:24:53;40.40;;;19.98;;
32080;SDS011;18593;51.426;7.030;2023-11-18T00:27:20;40.10;;;20.30;;
32080;SDS011;18593;51.426;7.030;2023-11-18T00:29:51;37.70;;;19.92;;
32080;SDS011;18593;51.426;7.030;2023-11-18T00:32:19;38.28;;;19.30;;
32080;SDS011;18593;51.426;7.030;2023-11-18T00:34:46;38.45;;;20.02;;
32080;SDS011;18593;51.426;7.030;2023-11-18T00:37:14;38.17;;;18.85;;
32080;SDS011;18593;51.426;7.030;2023-11-18T00:39:42;38.13;;;19.88;;
32080;SDS011;18593;51.426;7.030;2023-11-18T00:42:09;37.35;;;19.52;;
32080;SDS011;18593;51.426;7.030;2023-11-18T00:44:37;37.80;;;19.98;;
32080;SDS011;18593;51.426;7.030;2023-11-18T00:47:06;37.17;;;19.08;;
32080;SDS011;18593;51.426;7.030;2023-11-18T00:49:33;35.15;;;18.65;;
32080;SDS011;18593;51.426;7.030;2023-11-18T00:52:01;35.30;;;18.00;;
32080;SDS011;18593;51.426;7.030;2023-11-18T00:54:29;35.63;;;18.02;;
32080;SDS011;18593;51.426;7.030;2023-11-18T00:56:56;34.28;;;18.10;;
32080;SDS011;18593;51.426;7.030;2023-11-18T00:59:24;32.55;;;17.92;;
32080;SDS011;18593;51.426;7.030;2023-11-18T01:01:52;35.40;;;18.48;;
32080;SDS011;18593;51.426;7.030;2023-11-18T01:04:20;30.08;;;16.90;;
32080;SDS011;18593;51.426;7.030;2023-11-18T01:06:48;33.33;;;17.13;;
32080;SDS011;18593;51.426;7.030;2023-11-18T01:09:16;32.03;;;16.77;;
32080;SDS011;18593;51.426;7.030;2023-11-18T01:11:44;29.15;;;15.15;;
32080;SDS011;18593;51.426;7.030;2023-11-18T01:14:12;31.33;;;15.15;;
32080;SDS011;18593;51.426;7.030;2023-11-18T01:16:38;28.60;;;14.85;;
32080;SDS011;18593;51.426;7.030;2023-11-18T01:19:06;27.30;;;13.68;;
32080;SDS011;18593;51.426;7.030;2023-11-18T01:21:35;26.27;;;14.73;;
32080;SDS011;18593;51.426;7.030;2023-11-18T01:24:03;27.17;;;15.70;;
32080;SDS011;18593;51.426;7.030;2023-11-18T01:26:33;27.85;;;16.35;;
32080;SDS011;18593;51.426;7.030;2023-11-18T01:29:02;29.52;;;16.30;;
32080;SDS011;18593;51.426;7.030;2023-11-18T01:31:29;29.33;;;15.80;;
32080;SDS011;18593;51.426;7.030;2023-11-18T01:33:57;24.05;;;14.55;;
32080;SDS011;18593;51.426;7.030;2023-11-18T01:36:25;25.98;;;15.25;;
32080;SDS011;18593;51.426;7.030;2023-11-18T01:38:54;26.90;;;15.98;;
32080;SDS011;18593;51.426;7.030;2023-11-18T01:41:22;26.42;;;15.10;;
32080;SDS011;18593;51.426;7.030;2023-11-18T01:43:49;23.83;;;14.27;;
32080;SDS011;18593;51.426;7.030;2023-11-18T01:46:18;24.77;;;14.07;;
32080;SDS011;18593;51.426;7.030;2023-11-18T01:48:48;27.75;;;15.60;;
32080;SDS011;18593;51.426;7.030;2023-11-18T01:51:16;27.67;;;14.85;;
32080;SDS011;18593;51.426;7.030;2023-11-18T01:53:45;31.20;;;15.80;;
32080;SDS011;18593;51.426;7.030;2023-11-18T01:56:17;26.85;;;14.75;;
32080;SDS011;18593;51.426;7.030;2023-11-18T01:58:46;27.98;;;15.07;;
32080;SDS011;18593;51.426;7.030;2023-11-18T02:01:14;26.17;;;13.60;;
32080;SDS011;18593;51.426;7.030;2023-11-18T02:03:43;28.52;;;14.57;;
32080;SDS011;18593;51.426;7.030;2023-11-18T02:06:12;26.75;;;14.35;;
32080;SDS011;18593;51.426;7.030;2023-11-18T02:08:42;28.33;;;14.30;;
32080;SDS011;18593;51.426;7.030;2023-11-18T02:11:13;29.08;;;15.05;;
32080;SDS011;18593;51.426;7.030;2023-11-18T02:13:50;25.88;;;14.50;;
32080;SDS011;18593;51.426;7.030;2023-11-18T02:16:24;33.75;;;15.73;;
32080;SDS011;18593;51.426;7.030;2023-11-18T02:18:53;28.92;;;14.95;;
32080;SDS011;18593;51.426;7.030;2023-11-18T02:21:22;30.13;;;15.68;;
32080;SDS011;18593;51.426;7.030;2023-11-18T02:23:50;29.52;;;15.90;;
32080;SDS011;18593;51.426;7.030;2023-11-18T02:26:23;30.55;;;15.38;;
32080;SDS011;18593;51.426;7.030;2023-11-18T02:28:51;27.08;;;14.68;;
32080;SDS011;18593;51.426;7.030;2023-11-18T02:31:20;27.92;;;14.40;;
32080;SDS011;18593;51.426;7.030;2023-11-18T02:34:00;27.90;;;14.48;;
32080;SDS011;18593;51.426;7.030;2023-11-18T02:36:34;29.23;;;13.90;;
32080;SDS011;18593;51.426;7.030;2023-11-18T02:39:06;31.17;;;15.70;;
32080;SDS011;18593;51.426;7.030;2023-11-18T02:41:46;28.00;;;14.18;;
32080;SDS011;18593;51.426;7.030;2023-11-18T02:44:18;27.10;;;15.80;;
32080;SDS011;18593;51.426;7.030;2023-11-18T02:46:48;29.38;;;15.18;;
32080;SDS011;18593;51.426;7.030;2023-11-18T02:49:15;28.02;;;15.68;;
32080;SDS011;18593;51.426;7.030;2023-11-18T02:51:43;29.75;;;15.25;;
32080;SDS011;18593;51.426;7.030;2023-11-18T02:54:12;28.05;;;14.60;;
32080;SDS011;18593;51.426;7.030;2023-11-18T02:56:41;28.83;;;15.00;;
32080;SDS011;18593;51.426;7.030;2023-11-18T02:59:10;27.45;;;13.68;;
32080;SDS011;18593;51.426;7.030;2023-11-18T03:01:38;24.90;;;13.20;;
32080;SDS011;18593;51.426;7.030;2023-11-18T03:04:06;26.38;;;14.57;;
32080;SDS011;18593;51.426;7.030;2023-11-18T03:06:35;24.35;;;13.63;;
32080;SDS011;18593;51.426;7.030;2023-11-18T03:09:02;25.80;;;13.60;;
32080;SDS011;18593;51.426;7.030;2023-11-18T03:11:32;27.17;;;14.75;;
32080;SDS011;18593;51.426;7.030;2023-11-18T03:14:01;29.02;;;14.60;;
32080;SDS011;18593;51.426;7.030;2023-11-18T03:16:30;27.95;;;14.90;;
32080;SDS011;18593;51.426;7.030;2023-11-18T03:18:57;27.25;;;14.68;;
32080;SDS011;18593;51.426;7.030;2023-11-18T03:21:26;28.05;;;14.57;;
32080;SDS011;18593;51.426;7.030;2023-11-18T03:23:54;27.05;;;13.38;;
32080;SDS011;18593;51.426;7.030;2023-11-18T03:26:21;25.33;;;13.55;;
32080;SDS011;18593;51.426;7.030;2023-11-18T03:28:49;26.25;;;13.55;;
32080;SDS011;18593;51.426;7.030;2023-11-18T03:31:18;25.80;;;14.20;;
32080;SDS011;18593;51.426;7.030;2023-11-18T03:33:45;24.00;;;13.18;;
32080;SDS011;18593;51.426;7.030;2023-11-18T03:36:12;22.73;;;13.10;;
32080;SDS011;18593;51.426;7.030;2023-11-18T03:38:43;25.42;;;13.93;;
32080;SDS011;18593;51.426;7.030;2023-11-18T03:41:11;23.08;;;13.45;;
32080;SDS011;18593;51.426;7.030;2023-11-18T03:43:39;27.17;;;14.00;;
32080;SDS011;18593;51.426;7.030;2023-11-18T03:46:06;24.23;;;12.93;;
32080;SDS011;18593;51.426;7.030;2023-11-18T03:48:36;25.95;;;14.13;;
32080;SDS011;18593;51.426;7.030;2023-11-18T03:51:03;25.55;;;13.52;;
32080;SDS011;18593;51.426;7.030;2023-11-18T03:53:31;25.50;;;13.52;;
32080;SDS011;18593;51.426;7.030;2023-11-18T03:55:59;22.92;;;12.73;;
32080;SDS011;18593;51.426;7.030;2023-11-18T03:58:27;22.05;;;12.80;;
32080;SDS011;18593;51.426;7.030;2023-11-18T04:00:54;24.63;;;13.50;;
32080;SDS011;18593;51.426;7.030;2023-11-18T04:03:22;24.20;;;13.02;;
32080;SDS011;18593;51.426;7.030;2023-11-18T04:05:51;23.00;;;13.45;;
32080;SDS011;18593;51.426;7.030;2023-11-18T04:08:19;25.17;;;14.07;;
32080;SDS011;18593;51.426;7.030;2023-11-18T04:10:46;25.52;;;13.23;;
32080;SDS011;18593;51.426;7.030;2023-11-18T04:13:13;26.08;;;14.23;;
32080;SDS011;18593;51.426;7.030;2023-11-18T04:15:41;23.95;;;13.20;;
32080;SDS011;18593;51.426;7.030;2023-11-18T04:18:10;25.63;;;13.90;;
32080;SDS011;18593;51.426;7.030;2023-11-18T04:20:38;28.23;;;14.50;;
32080;SDS011;18593;51.426;7.030;2023-11-18T04:23:06;25.25;;;13.35;;
32080;SDS011;18593;51.426;7.030;2023-11-18T04:25:34;29.48;;;13.90;;
32080;SDS011;18593;51.426;7.030;2023-11-18T04:28:02;26.98;;;15.10;;
32080;SDS011;18593;51.426;7.030;2023-11-18T04:30:30;25.55;;;14.93;;
32080;SDS011;18593;51.426;7.030;2023-11-18T04:32:58;24.27;;;13.80;;
32080;SDS011;18593;51.426;7.030;2023-11-18T04:35:25;26.33;;;14.10;;
32080;SDS011;18593;51.426;7.030;2023-11-18T04:37:53;27.13;;;14.73;;
32080;SDS011;18593;51.426;7.030;2023-11-18T04:40:21;26.23;;;15.02;;
32080;SDS011;18593;51.426;7.030;2023-11-18T04:42:49;25.17;;;14.27;;
32080;SDS011;18593;51.426;7.030;2023-11-18T04:45:16;28.00;;;14.55;;
32080;SDS011;18593;51.426;7.030;2023-11-18T04:47:44;26.80;;;14.38;;
32080;SDS011;18593;51.426;7.030;2023-11-18T04:50:11;23.75;;;13.27;;
32080;SDS011;18593;51.426;7.030;2023-11-18T04:52:39;24.85;;;14.60;;
32080;SDS011;18593;51.426;7.030;2023-11-18T04:55:07;24.83;;;13.95;;
32080;SDS011;18593;51.426;7.030;2023-11-18T04:57:39;26.55;;;14.93;;
32080;SDS011;18593;51.426;7.030;2023-11-18T05:00:07;25.52;;;13.85;;
32080;SDS011;18593;51.426;7.030;2023-11-18T05:02:36;26.05;;;13.93;;
32080;SDS011;18593;51.426;7.030;2023-11-18T05:05:04;29.10;;;14.40;;
32080;SDS011;18593;51.426;7.030;2023-11-18T05:07:32;25.48;;;14.60;;
32080;SDS011;18593;51.426;7.030;2023-11-18T05:10:00;25.98;;;14.50;;
32080;SDS011;18593;51.426;7.030;2023-11-18T05:12:28;26.83;;;15.43;;
32080;SDS011;18593;51.426;7.030;2023-11-18T05:14:57;25.58;;;14.30;;
32080;SDS011;18593;51.426;7.030;2023-11-18T05:17:24;28.13;;;14.82;;
32080;SDS011;18593;51.426;7.030;2023-11-18T05:19:52;25.85;;;14.75;;
32080;SDS011;18593;51.426;7.030;2023-11-18T05:22:20;26.75;;;14.68;;
32080;SDS011;18593;51.426;7.030;2023-11-18T05:24:47;28.52;;;14.65;;
32080;SDS011;18593;51.426;7.030;2023-11-18T05:27:15;28.45;;;15.07;;
32080;SDS011;18593;51.426;7.030;2023-11-18T05:29:43;25.00;;;14.02;;
32080;SDS011;18593;51.426;7.030;2023-11-18T05:32:15;26.38;;;13.93;;
32080;SDS011;18593;51.426;7.030;2023-11-18T05:34:42;24.60;;;14.43;;
32080;SDS011;18593;51.426;7.030;2023-11-18T05:37:10;27.08;;;14.85;;
32080;SDS011;18593;51.426;7.030;2023-11-18T05:39:37;25.35;;;13.88;;
32080;SDS011;18593;51.426;7.030;2023-11-18T05:42:09;26.33;;;13.80;;
32080;SDS011;18593;51.426;7.030;2023-11-18T05:44:36;25.30;;;14.02;;
32080;SDS011;18593;51.426;7.030;2023-11-18T05:47:05;26.88;;;14.18;;
32080;SDS011;18593;51.426;7.030;2023-11-18T05:49:34;23.98;;;14.02;;
32080;SDS011;18593;51.426;7.030;2023-11-18T05:52:02;26.08;;;14.30;;
32080;SDS011;18593;51.426;7.030;2023-11-18T05:54:30;26.90;;;14.88;;
32080;SDS011;18593;51.426;7.030;2023-11-18T05:56:57;25.55;;;14.55;;
32080;SDS011;18593;51.426;7.030;2023-11-18T05:59:25;28.00;;;14.82;;
32080;SDS011;18593;51.426;7.030;2023-11-18T06:01:52;27.55;;;15.05;;
32080;SDS011;18593;51.426;7.030;2023-11-18T06:04:22;26.35;;;14.82;;
32080;SDS011;18593;51.426;7.030;2023-11-18T06:06:52;25.95;;;14.13;;
32080;SDS011;18593;51.426;7.030;2023-11-18T06:09:19;27.65;;;15.63;;
32080;SDS011;18593;51.426;7.030;2023-11-18T06:11:50;28.10;;;14.73;;
32080;SDS011;18593;51.426;7.030;2023-11-18T06:14:18;29.35;;;15.32;;
32080;SDS011;18593;51.426;7.030;2023-11-18T06:16:46;31.25;;;17.17;;
32080;SDS011;18593;51.426;7.030;2023-11-18T06:19:15;28.55;;;15.32;;
32080;SDS011;18593;51.426;7.030;2023-11-18T06:21:44;31.83;;;16.52;;
32080;SDS011;18593;51.426;7.030;2023-11-18T06:24:12;30.27;;;16.35;;
32080;SDS011;18593;51.426;7.030;2023-11-18T06:26:42;27.95;;;15.38;;
32080;SDS011;18593;51.426;7.030;2023-11-18T06:29:10;30.13;;;15.63;;
32080;SDS011;18593;51.426;7.030;2023-11-18T06:31:37;27.70;;;14.45;;
32080;SDS011;18593;51.426;7.030;2023-11-18T06:34:05;28.90;;;15.02;;
32080;SDS011;18593;51.426;7.030;2023-11-18T06:36:33;25.33;;;14.55;;
32080;SDS011;18593;51.426;7.030;2023-11-18T06:39:00;24.02;;;13.98;;
32080;SDS011;18593;51.426;7.030;2023-11-18T06:41:31;29.52;;;15.45;;
32080;SDS011;18593;51.426;7.030;2023-11-18T06:44:00;26.98;;;14.65;;
32080;SDS011;18593;51.426;7.030;2023-11-18T06:46:34;26.55;;;15.32;;
32080;SDS011;18593;51.426;7.030;2023-11-18T06:49:05;25.90;;;14.45;;
32080;SDS011;18593;51.426;7.030;2023-11-18T06:51:33;27.23;;;14.15;;
32080;SDS011;18593;51.426;7.030;2023-11-18T06:54:03;25.35;;;14.98;;
32080;SDS011;18593;51.426;7.030;2023-11-18T06:56:35;26.92;;;14.82;;
32080;SDS011;18593;51.426;7.030;2023-11-18T06:59:04;26.45;;;14.82;;
32080;SDS011;18593;51.426;7.030;2023-11-18T07:01:33;25.95;;;14.27;;
32080;SDS011;18593;51.426;7.030;2023-11-18T07:04:00;24.60;;;14.07;;
32080;SDS011;18593;51.426;7.030;2023-11-18T07:06:28;28.10;;;15.07;;
32080;SDS011;18593;51.426;7.030;2023-11-18T07:08:56;26.77;;;14.73;;
32080;SDS011;18593;51.426;7.030;2023-11-18T07:11:25;25.27;;;14.48;;
32080;SDS011;18593;51.426;7.030;2023-11-18T07:13:55;23.67;;;14.15;;
32080;SDS011;18593;51.426;7.030;2023-11-18T07:16:24;25.42;;;14.45;;
32080;SDS011;18593;51.426;7.030;2023-11-18T07:18:52;27.38;;;14.05;;
32080;SDS011;18593;51.426;7.030;2023-11-18T07:21:19;26.17;;;13.98;;
32080;SDS011;18593;51.426;7.030;2023-11-18T07:23:47;25.10;;;14.60;;
32080;SDS011;18593;51.426;7.030;2023-11-18T07:26:15;26.80;;;14.35;;
32080;SDS011;18593;51.426;7.030;2023-11-18T07:28:42;24.02;;;13.88;;
32080;SDS011;18593;51.426;7.030;2023-11-18T07:31:11;24.90;;;14.00;;
32080;SDS011;18593;51.426;7.030;2023-11-18T07:33:39;23.63;;;13.43;;
32080;SDS011;18593;51.426;7.030;2023-11-18T07:36:10;25.38;;;13.77;;
32080;SDS011;18593;51.426;7.030;2023-11-18T07:38:37;24.83;;;13.50;;
32080;SDS011;18593;51.426;7.030;2023-11-18T07:41:05;28.10;;;13.90;;
32080;SDS011;18593;51.426;7.030;2023-11-18T07:43:33;24.55;;;13.90;;
32080;SDS011;18593;51.426;7.030;2023-11-18T07:46:03;27.00;;;13.48;;
32080;SDS011;18593;51.426;7.030;2023-11-18T07:48:34;22.55;;;12.15;;
32080;SDS011;18593;51.426;7.030;2023-11-18T07:51:01;24.15;;;13.10;;
32080;SDS011;18593;51.426;7.030;2023-11-18T07:53:30;22.35;;;13.07;;
32080;SDS011;18593;51.426;7.030;2023-11-18T07:55:57;22.77;;;12.57;;
32080;SDS011;18593;51.426;7.030;2023-11-18T07:58:26;23.48;;;12.65;;
32080;SDS011;18593;51.426;7.030;2023-11-18T08:00:54;22.75;;;12.88;;
32080;SDS011;18593;51.426;7.030;2023-11-18T08:03:21;21.88;;;12.38;;
32080;SDS011;18593;51.426;7.030;2023-11-18T08:05:50;19.77;;;11.50;;
32080;SDS011;18593;51.426;7.030;2023-11-18T08:08:17;21.88;;;11.35;;
32080;SDS011;18593;51.426;7.030;2023-11-18T08:10:48;18.65;;;11.25;;
32080;SDS011;18593;51.426;7.030;2023-11-18T08:13:16;19.90;;;11.07;;
32080;SDS011;18593;51.426;7.030;2023-11-18T08:15:43;23.35;;;11.85;;
32080;SDS011;18593;51.426;7.030;2023-11-18T08:18:11;22.17;;;11.25;;
32080;SDS011;18593;51.426;7.030;2023-11-18T08:20:39;23.30;;;11.98;;
32080;SDS011;18593;51.426;7.030;2023-11-18T08:23:10;23.92;;;11.68;;
32080;SDS011;18593;51.426;7.030;2023-11-18T08:25:37;23.52;;;11.25;;
32080;SDS011;18593;51.426;7.030;2023-11-18T08:28:06;22.75;;;11.05;;
32080;SDS011;18593;51.426;7.030;2023-11-18T08:30:36;21.02;;;10.98;;
32080;SDS011;18593;51.426;7.030;2023-11-18T08:33:04;21.60;;;10.50;;
32080;SDS011;18593;51.426;7.030;2023-11-18T08:35:34;21.25;;;11.05;;
32080;SDS011;18593;51.426;7.030;2023-11-18T08:38:01;24.83;;;11.13;;
32080;SDS011;18593;51.426;7.030;2023-11-18T08:40:31;22.73;;;11.82;;
32080;SDS011;18593;51.426;7.030;2023-11-18T08:42:59;22.17;;;11.05;;
32080;SDS011;18593;51.426;7.030;2023-11-18T08:45:33;18.73;;;10.52;;
32080;SDS011;18593;51.426;7.030;2023-11-18T08:48:03;21.15;;;10.13;;
32080;SDS011;18593;51.426;7.030;2023-11-18T08:50:33;18.73;;;9.73;;
32080;SDS011;18593;51.426;7.030;2023-11-18T08:53:02;20.52;;;11.48;;
32080;SDS011;18593;51.426;7.030;2023-11-18T08:55:32;20.00;;;11.88;;
32080;SDS011;18593;51.426;7.030;2023-11-18T08:58:06;21.38;;;11.73;;
32080;SDS011;18593;51.426;7.030;2023-11-18T09:00:44;19.45;;;10.95;;
32080;SDS011;18593;51.426;7.030;2023-11-18T09:03:13;21.98;;;11.70;;
32080;SDS011;18593;51.426;7.030;2023-11-18T09:05:53;23.70;;;10.85;;
32080;SDS011;18593;51.426;7.030;2023-11-18T09:08:29;18.95;;;10.90;;
32080;SDS011;18593;51.426;7.030;2023-11-18T09:13:30;26.23;;;15.70;;
32080;SDS011;18593;51.426;7.030;2023-11-18T09:16:00;22.38;;;11.95;;
32080;SDS011;18593;51.426;7.030;2023-11-18T09:18:33;23.05;;;12.95;;
32080;SDS011;18593;51.426;7.030;2023-11-18T09:21:01;24.58;;;14.77;;
32080;SDS011;18593;51.426;7.030;2023-11-18T09:23:30;18.40;;;10.02;;
32080;SDS011;18593;51.426;7.030;2023-11-18T09:26:00;22.40;;;13.95;;
32080;SDS011;18593;51.426;7.030;2023-11-18T09:28:33;17.73;;;10.68;;
32080;SDS011;18593;51.426;7.030;2023-11-18T09:31:05;19.70;;;9.95;;
32080;SDS011;18593;51.426;7.030;2023-11-18T09:33:39;16.58;;;8.48;;
32080;SDS011;18593;51.426;7.030;2023-11-18T09:36:12;19.40;;;8.65;;
32080;SDS011;18593;51.426;7.030;2023-11-18T09:38:41;17.88;;;7.78;;
32080;SDS011;18593;51.426;7.030;2023-11-18T09:41:13;14.13;;;8.25;;
32080;SDS011;18593;51.426;7.030;2023-11-18T09:43:41;17.88;;;8.15;;
32080;SDS011;18593;51.426;7.030;2023-11-18T09:46:11;15.77;;;7.80;;
32080;SDS011;18593;51.426;7.030;2023-11-18T09:48:41;15.88;;;7.93;;
32080;SDS011;18593;51.426;7.030;2023-11-18T09:51:14;20.10;;;8.23;;
32080;SDS011;18593;51.426;7.030;2023-11-18T09:53:48;17.23;;;7.82;;
32080;SDS011;18593;51.426;7.030;2023-11-18T09:56:27;18.02;;;8.15;;
32080;SDS011;18593;51.426;7.030;2023-11-18T09:59:05;15.20;;;7.68;;
32080;SDS011;18593;51.426;7.030;2023-11-18T10:01:42;15.32;;;8.00;;
32080;SDS011;18593;51.426;7.030;2023-11-18T10:04:12;17.55;;;7.88;;
32080;SDS011;18593;51.426;7.030;2023-11-18T10:06:43;13.65;;;6.55;;
32080;SDS011;18593;51.426;7.030;2023-11-18T10:09:12;14.60;;;7.32;;
32080;SDS011;18593;51.426;7.030;2023-11-18T10:11:45;15.45;;;7.30;;
32080;SDS011;18593;51.426;7.030;2023-11-18T10:14:14;19.40;;;7.47;;
32080;SDS011;18593;51.426;7.030;2023-11-18T10:16:42;12.30;;;6.78;;
32080;SDS011;18593;51.426;7.030;2023-11-18T10:19:12;14.55;;;6.47;;
32080;SDS011;18593;51.426;7.030;2023-11-18T10:21:42;15.95;;;6.78;;
32080;SDS011;18593;51.426;7.030;2023-11-18T10:24:14;16.85;;;9.75;;
32080;SDS011;18593;51.426;7.030;2023-11-18T10:26:46;19.10;;;10.38;;
32080;SDS011;18593;51.426;7.030;2023-11-18T10:29:23;14.63;;;8.60;;
32080;SDS011;18593;51.426;7.030;2023-11-18T10:32:01;18.60;;;7.85;;
32080;SDS011;18593;51.426;7.030;2023-11-18T10:34:35;17.08;;;7.40;;
32080;SDS011;18593;51.426;7.030;2023-11-18T10:37:03;18.02;;;7.75;;
32080;SDS011;18593;51.426;7.030;2023-11-18T10:39:31;15.98;;;8.15;;
32080;SDS011;18593;51.426;7.030;2023-11-18T10:42:02;16.38;;;8.15;;
32080;SDS011;18593;51.426;7.030;2023-11-18T10:44:30;15.63;;;8.05;;
32080;SDS011;18593;51.426;7.030;2023-11-18T10:46:58;17.92;;;8.50;;
32080;SDS011;18593;51.426;7.030;2023-11-18T10:49:26;13.23;;;7.25;;
32080;SDS011;18593;51.426;7.030;2023-11-18T10:51:55;15.50;;;7.65;;
32080;SDS011;18593;51.426;7.030;2023-11-18T10:54:23;14.88;;;8.55;;
32080;SDS011;18593;51.426;7.030;2023-11-18T10:56:51;20.60;;;8.50;;
32080;SDS011;18593;51.426;7.030;2023-11-18T10:59:28;12.80;;;7.15;;
32080;SDS011;18593;51.426;7.030;2023-11-18T11:01:56;16.17;;;7.85;;
32080;SDS011;18593;51.426;7.030;2023-11-18T11:04:23;14.65;;;7.65;;
32080;SDS011;18593;51.426;7.030;2023-11-18T11:06:54;14.50;;;7.43;;
32080;SDS011;18593;51.426;7.030;2023-11-18T11:09:23;12.45;;;6.85;;
32080;SDS011;18593;51.426;7.030;2023-11-18T11:11:53;13.48;;;7.28;;
32080;SDS011;18593;51.426;7.030;2023-11-18T11:14:26;13.85;;;6.95;;
32080;SDS011;18593;51.426;7.030;2023-11-18T11:17:01;11.82;;;7.07;;
32080;SDS011;18593;51.426;7.030;2023-11-18T11:19:39;17.65;;;7.97;;
32080;SDS011;18593;51.426;7.030;2023-11-18T11:22:22;13.25;;;7.13;;
32080;SDS011;18593;51.426;7.030;2023-11-18T11:25:09;13.38;;;6.90;;
32080;SDS011;18593;51.426;7.030;2023-11-18T11:27:50;13.70;;;6.88;;
32080;SDS011;18593;51.426;7.030;2023-11-18T11:30:29;13.57;;;6.68;;
32080;SDS011;18593;51.426;7.030;2023-11-18T11:33:11;16.13;;;8.77;;
32080;SDS011;18593;51.426;7.030;2023-11-18T11:35:46;16.50;;;8.85;;
32080;SDS011;18593;51.426;7.030;2023-11-18T11:38:22;16.08;;;7.13;;
32080;SDS011;18593;51.426;7.030;2023-11-18T11:40:52;14.25;;;6.97;;
32080;SDS011;18593;51.426;7.030;2023-11-18T11:43:21;15.85;;;8.02;;
32080;SDS011;18593;51.426;7.030;2023-11-18T11:45:51;14.18;;;6.82;;
32080;SDS011;18593;51.426;7.030;2023-11-18T11:48:21;16.00;;;6.50;;
32080;SDS011;18593;51.426;7.030;2023-11-18T11:50:58;12.60;;;6.88;;
32080;SDS011;18593;51.426;7.030;2023-11-18T11:53:42;15.32;;;6.97;;
32080;SDS011;18593;51.426;7.030;2023-11-18T11:56:22;19.10;;;7.57;;
32080;SDS011;18593;51.426;7.030;2023-11-18T11:59:05;13.70;;;6.95;;
32080;SDS011;18593;51.426;7.030;2023-11-18T12:01:37;14.35;;;6.63;;
32080;SDS011;18593;51.426;7.030;2023-11-18T12:04:12;16.95;;;8.10;;
32080;SDS011;18593;51.426;7.030;2023-11-18T12:06:53;17.48;;;7.95;;
32080;SDS011;18593;51.426;7.030;2023-11-18T12:09:21;15.05;;;7.22;;
32080;SDS011;18593;51.426;7.030;2023-11-18T12:11:58;15.32;;;6.57;;
32080;SDS011;18593;51.426;7.030;2023-11-18T12:14:28;18.02;;;7.40;;
32080;SDS011;18593;51.426;7.030;2023-11-18T12:17:08;18.20;;;7.30;;
32080;SDS011;18593;51.426;7.030;2023-11-18T12:19:36;12.30;;;6.70;;
32080;SDS011;18593;51.426;7.030;2023-11-18T12:22:14;15.73;;;8.20;;
32080;SDS011;18593;51.426;7.030;2023-11-18T12:28:09;16.42;;;7.18;;
32080;SDS011;18593;51.426;7.030;2023-11-18T12:30:40;12.90;;;6.22;;
32080;SDS011;18593;51.426;7.030;2023-11-18T12:33:22;13.63;;;6.68;;
32080;SDS011;18593;51.426;7.030;2023-11-18T12:39:26;12.70;;;6.22;;
32080;SDS011;18593;51.426;7.030;2023-11-18T12:42:34;11.13;;;6.30;;
32080;SDS011;18593;51.426;7.030;2023-11-18T12:45:44;11.48;;;6.15;;
32080;SDS011;18593;51.426;7.030;2023-11-18T12:48:43;15.50;;;6.85;;
32080;SDS011;18593;51.426;7.030;2023-11-18T12:51:13;12.70;;;6.28;;
32080;SDS011;18593;51.426;7.030;2023-11-18T12:53:47;14.10;;;6.35;;
32080;SDS011;18593;51.426;7.030;2023-11-18T12:56:19;12.50;;;6.20;;
32080;SDS011;18593;51.426;7.030;2023-11-18T12:58:48;11.88;;;5.20;;
32080;SDS011;18593;51.426;7.030;2023-11-18T13:01:21;13.25;;;6.55;;
32080;SDS011;18593;51.426;7.030;2023-11-18T13:03:52;12.10;;;5.70;;
32080;SDS011;18593;51.426;7.030;2023-11-18T13:06:19;13.82;;;6.03;;
32080;SDS011;18593;51.426;7.030;2023-11-18T13:08:50;12.77;;;6.10;;
32080;SDS011;18593;51.426;7.030;2023-11-18T13:11:20;13.80;;;5.53;;
32080;SDS011;18593;51.426;7.030;2023-11-18T13:13:49;12.88;;;5.95;;
32080;SDS011;18593;51.426;7.030;2023-11-18T13:16:17;14.60;;;5.68;;
32080;SDS011;18593;51.426;7.030;2023-11-18T13:18:47;13.57;;;5.82;;
32080;SDS011;18593;51.426;7.030;2023-11-18T13:21:16;13.18;;;6.07;;
32080;SDS011;18593;51.426;7.030;2023-11-18T13:23:45;13.63;;;5.75;;
32080;SDS011;18593;51.426;7.030;2023-11-18T13:26:15;11.57;;;6.20;;
32080;SDS011;18593;51.426;7.030;2023-11-18T13:28:45;14.18;;;5.40;;
32080;SDS011;18593;51.426;7.030;2023-11-18T13:31:14;13.65;;;6.25;;
32080;SDS011;18593;51.426;7.030;2023-11-18T13:33:43;9.45;;;5.15;;
32080;SDS011;18593;51.426;7.030;2023-11-18T13:36:14;12.20;;;5.82;;
32080;SDS011;18593;51.426;7.030;2023-11-18T13:38:49;11.65;;;5.10;;
32080;SDS011;18593;51.426;7.030;2023-11-18T13:41:28;9.02;;;5.50;;
32080;SDS011;18593;51.426;7.030;2023-11-18T13:43:58;12.55;;;5.65;;
32080;SDS011;18593;51.426;7.030;2023-11-18T13:46:27;12.60;;;5.50;;
32080;SDS011;18593;51.426;7.030;2023-11-18T13:48:55;14.73;;;5.40;;
32080;SDS011;18593;51.426;7.030;2023-11-18T13:51:32;8.85;;;4.65;;
32080;SDS011;18593;51.426;7.030;2023-11-18T13:54:01;10.97;;;5.30;;
32080;SDS011;18593;51.426;7.030;2023-11-18T13:56:30;10.65;;;4.65;;
32080;SDS011;18593;51.426;7.030;2023-11-18T13:58:57;12.60;;;5.40;;
32080;SDS011;18593;51.426;7.030;2023-11-18T14:01:26;9.73;;;4.50;;
32080;SDS011;18593;51.426;7.030;2023-11-18T14:03:54;10.25;;;4.72;;
32080;SDS011;18593;51.426;7.030;2023-11-18T14:06:27;11.32;;;4.65;;
32080;SDS011;18593;51.426;7.030;2023-11-18T14:08:56;10.20;;;4.15;;
32080;SDS011;18593;51.426;7.030;2023-11-18T14:11:24;10.10;;;4.13;;
32080;SDS011;18593;51.426;7.030;2023-11-18T14:13:51;11.00;;;4.03;;
32080;SDS011;18593;51.426;7.030;2023-11-18T14:16:20;9.32;;;4.20;;
32080;SDS011;18593;51.426;7.030;2023-11-18T14:18:49;9.85;;;4.05;;
32080;SDS011;18593;51.426;7.030;2023-11-18T14:21:16;10.07;;;4.07;;
32080;SDS011;18593;51.426;7.030;2023-11-18T14:23:45;12.35;;;4.28;;
32080;SDS011;18593;51.426;7.030;2023-11-18T14:26:14;10.77;;;4.13;;
32080;SDS011;18593;51.426;7.030;2023-11-18T14:28:41;10.13;;;3.90;;
32080;SDS011;18593;51.426;7.030;2023-11-18T14:31:09;8.60;;;3.20;;
32080;SDS011;18593;51.426;7.030;2023-11-18T14:33:36;9.60;;;3.50;;
32080;SDS011;18593;51.426;7.030;2023-11-18T14:36:04;7.20;;;3.40;;
32080;SDS011;18593;51.426;7.030;2023-11-18T14:38:34;7.90;;;3.42;;
32080;SDS011;18593;51.426;7.030;2023-11-18T14:41:02;10.43;;;3.83;;
32080;SDS011;18593;51.426;7.030;2023-11-18T14:43:31;8.95;;;3.85;;
32080;SDS011;18593;51.426;7.030;2023-11-18T14:45:59;8.57;;;3.75;;
32080;SDS011;18593;51.426;7.030;2023-11-18T14:48:26;9.50;;;3.30;;
32080;SDS011;18593;51.426;7.030;2023-11-18T14:50:54;9.95;;;3.35;;